Time,TemperatureF,DewpointF,PressureIn,WindDirection,WindDirectionDegrees,WindSpeedMPH,WindSpeedGustMPH,Humidity,HourlyPrecipIn,Conditions,Clouds,dailyrainin,SolarRadiationWatts/m^2,SoftwareType,DateUTC
2013-07-05 00:00:00,66.8,61.5,29.96,ENE,73,2.0,4.0,83,0.00,OVC,SCT,0.00,0.0,WeatherDisplay:10.37,2013-07-05 10:00:00,
2013-07-05 00:10:00,66.7,61.4,29.96,ENE,73,0.0,3.0,83,0.00,OVC,SCT,0.00,0.0,WeatherDisplay:10.37,2013-07-05 10:10:00,
2013-07-05 00:20:00,66.5,61.5,29.96,ENE,73,1.0,2.0,84,0.00,BKN,SCT,0.00,0.0,WeatherDisplay:10.37,2013-07-05 10:20:00,
2013-07-05 00:30:00,66.3,62.0,29.95,ENE,73,1.0,2.0,86,0.00,BKN,SCT,0.00,0.0,WeatherDisplay:10.37,2013-07-05 10:30:00,
2013-07-05 00:40:00,66.2,61.9,29.95,East,99,2.0,5.0,86,0.00,BKN,SCT,0.00,0.0,WeatherDisplay:10.37,2013-07-05 10:40:00,
2013-07-05 00:50:00,66.0,61.7,29.95,East,98,0.0,2.0,86,0.00,BKN,SCT,0.00,0.0,WeatherDisplay:10.37,2013-07-05 10:50:00,
2013-07-05 01:10:00,65.1,61.2,29.95,East,79,1.0,5.0,87,0.00,BKN,SCT,0.00,0.0,WeatherDisplay:10.37,2013-07-05 11:10:00,
2013-07-05 01:20:00,64.9,60.9,29.94,ENE,71,0.0,5.0,87,0.00,FEW,SCT,0.00,0.0,WeatherDisplay:10.37,2013-07-05 11:20:00,
2013-07-05 01:30:00,64.7,60.7,29.94,ENE,71,0.0,3.0,87,0.00,FEW,SCT,0.00,0.0,WeatherDisplay:10.37,2013-07-05 11:30:00,
2013-07-05 01:40:00,64.4,60.4,29.94,ENE,71,1.0,3.0,87,0.00,FEW,SCT,0.00,0.0,WeatherDisplay:10.37,2013-07-05 11:40:00,
2013-07-05 01:50:00,64.0,60.4,29.94,ENE,71,1.0,3.0,88,0.00,FEW,SCT,0.00,0.0,WeatherDisplay:10.37,2013-07-05 11:50:00,
2013-07-05 02:00:00,63.5,59.9,29.93,ENE,71,0.0,2.0,88,0.00,FEW,SCT,0.00,0.0,WeatherDisplay:10.37,2013-07-05 12:00:00,
2013-07-05 02:10:00,63.2,59.9,29.93,ENE,71,1.0,2.0,89,0.00,FEW,SCT,0.00,0.0,WeatherDisplay:10.37,2013-07-05 12:10:00,
2013-07-05 02:20:00,63.0,60.0,29.93,ENE,71,0.0,2.0,90,0.00,FEW,SCT,0.00,0.0,WeatherDisplay:10.37,2013-07-05 12:20:00,
2013-07-05 02:30:00,62.7,59.7,29.93,ENE,71,0.0,0.0,90,0.00,FEW,SCT,0.00,0.0,WeatherDisplay:10.37,2013-07-05 12:30:00,
2013-07-05 02:40:00,62.5,59.5,29.93,ENE,71,0.0,1.0,90,0.00,CLR,SCT,0.00,0.0,WeatherDisplay:10.37,2013-07-05 12:40:00,
2013-07-05 02:50:00,62.3,59.3,29.93,ENE,71,0.0,0.0,90,0.00,CLR,SCT,0.00,0.0,WeatherDisplay:10.37,2013-07-05 12:50:00,
2013-07-05 03:00:00,62.0,59.0,29.93,ENE,71,0.0,1.0,90,0.00,CLR,SCT,0.00,0.0,WeatherDisplay:10.37,2013-07-05 13:00:00,
2013-07-05 03:10:00,61.9,58.9,29.93,ENE,71,0.0,2.0,90,0.00,CLR,SCT,0.00,0.0,WeatherDisplay:10.37,2013-07-05 13:10:00,
2013-07-05 03:20:00,61.7,58.7,29.93,ENE,71,0.0,1.0,90,0.00,CLR,SCT,0.00,0.0,WeatherDisplay:10.37,2013-07-05 13:20:00,
2013-07-05 03:30:00,61.6,58.6,29.93,ENE,71,0.0,1.0,90,0.00,CLR,SCT,0.00,0.0,WeatherDisplay:10.37,2013-07-05 13:30:00,
2013-07-05 03:40:00,61.7,58.7,29.93,ENE,71,0.0,3.0,90,0.00,CLR,SCT,0.00,0.0,WeatherDisplay:10.37,2013-07-05 13:40:00,
2013-07-05 03:50:00,61.7,58.7,29.93,ENE,71,0.0,2.0,90,0.00,CLR,SCT,0.00,0.0,WeatherDisplay:10.37,2013-07-05 13:50:00,
2013-07-05 04:00:00,61.8,59.1,29.93,ENE,71,0.0,2.0,91,0.00,CLR,SCT,0.00,0.0,WeatherDisplay:10.37,2013-07-05 14:00:00,
2013-07-05 04:10:00,61.7,59.0,29.93,ENE,74,0.0,3.0,91,0.00,CLR,SCT,0.00,0.0,WeatherDisplay:10.37,2013-07-05 14:10:00,
2013-07-05 04:40:00,61.5,58.5,29.93,East,100,0.0,5.0,90,0.00,CLR,SCT,0.00,0.0,WeatherDisplay:10.37,2013-07-05 14:40:00,
2013-07-05 04:50:00,61.5,58.5,29.93,ESE,104,1.0,3.0,90,0.00,CLR,SCT,0.00,0.0,WeatherDisplay:10.37,2013-07-05 14:50:00,
2013-07-05 05:00:00,61.4,58.1,29.93,East,94,0.0,3.0,89,0.00,CLR,SCT,0.00,0.0,WeatherDisplay:10.37,2013-07-05 15:00:00,
2013-07-05 05:10:00,61.3,58.0,29.93,East,88,1.0,4.0,89,0.00,CLR,SCT,0.00,0.0,WeatherDisplay:10.37,2013-07-05 15:10:00,
2013-07-05 05:30:00,61.1,57.8,29.93,East,92,0.0,1.0,89,0.00,CLR,SCT,0.00,0.0,WeatherDisplay:10.37,2013-07-05 15:30:00,
2013-07-05 05:40:00,60.9,57.6,29.93,East,94,0.0,4.0,89,0.00,CLR,SCT,0.00,0.0,WeatherDisplay:10.37,2013-07-05 15:40:00,
2013-07-05 05:50:00,60.9,57.6,29.93,East,94,1.0,4.0,89,0.00,CLR,SCT,0.00,0.1,WeatherDisplay:10.37,2013-07-05 15:50:00,
2013-07-05 06:00:00,60.9,57.6,29.94,East,94,0.0,2.0,89,0.00,CLR,SCT,0.00,0.3,WeatherDisplay:10.37,2013-07-05 16:00:00,
2013-07-05 06:10:00,60.8,57.5,29.94,East,94,0.0,2.0,89,0.00,CLR,SCT,0.00,1.1,WeatherDisplay:10.37,2013-07-05 16:10:00,
2013-07-05 06:20:00,60.9,57.6,29.94,East,94,1.0,3.0,89,0.00,CLR,SCT,0.00,2.1,WeatherDisplay:10.37,2013-07-05 16:20:00,
2013-07-05 06:30:00,61.3,58.0,29.95,ESE,103,0.0,4.0,89,0.00,CLR,SCT,0.00,3.8,WeatherDisplay:10.37,2013-07-05 16:30:00,
2013-07-05 06:40:00,61.6,58.3,29.95,ESE,103,1.0,4.0,89,0.00,CLR,SCT,0.00,5.6,WeatherDisplay:10.37,2013-07-05 16:40:00,
2013-07-05 06:50:00,62.2,58.9,29.95,East,101,0.0,3.0,89,0.00,BKN,SCT,0.00,10.5,WeatherDisplay:10.37,2013-07-05 16:50:00,
2013-07-05 07:00:00,63.0,59.7,29.95,East,101,0.0,3.0,89,0.00,BKN,SCT,0.00,16.0,WeatherDisplay:10.37,2013-07-05 17:00:00,
2013-07-05 07:10:00,64.1,60.8,29.95,East,101,0.0,2.0,89,0.00,BKN,SCT,0.00,18.4,WeatherDisplay:10.37,2013-07-05 17:10:00,
2013-07-05 07:20:00,65.3,62.0,29.96,East,101,0.0,2.0,89,0.00,BKN,SCT,0.00,25.7,WeatherDisplay:10.37,2013-07-05 17:20:00,
2013-07-05 07:30:00,66.5,62.9,29.96,East,101,0.0,2.0,88,0.00,BKN,SCT,0.00,31.9,WeatherDisplay:10.37,2013-07-05 17:30:00,
2013-07-05 07:40:00,67.7,63.4,29.96,East,101,0.0,3.0,86,0.00,BKN,SCT,0.00,37.2,WeatherDisplay:10.37,2013-07-05 17:40:00,
2013-07-05 07:50:00,68.8,64.1,29.96,East,101,0.0,2.0,85,0.00,SCT,SCT,0.00,35.2,WeatherDisplay:10.37,2013-07-05 17:50:00,
2013-07-05 08:00:00,69.6,64.2,29.97,East,101,0.0,3.0,83,0.00,SCT,SCT,0.00,150.3,WeatherDisplay:10.37,2013-07-05 18:00:00,
2013-07-05 08:10:00,71.1,65.3,29.97,NE,46,2.0,5.0,82,0.00,SCT,SCT,0.00,167.2,WeatherDisplay:10.37,2013-07-05 18:10:00,
2013-07-05 08:20:00,72.6,66.5,29.97,NE,39,1.0,7.0,81,0.00,SCT,SCT,0.00,201.2,WeatherDisplay:10.37,2013-07-05 18:20:00,
2013-07-05 08:30:00,74.2,67.3,29.97,NNE,26,2.0,6.0,79,0.00,SCT,SCT,0.00,229.7,WeatherDisplay:10.37,2013-07-05 18:30:00,
2013-07-05 08:40:00,75.1,67.8,29.97,NNE,17,2.0,7.0,78,0.00,SCT,SCT,0.00,92.8,WeatherDisplay:10.37,2013-07-05 18:40:00,
2013-07-05 08:50:00,75.5,68.2,29.97,NNE,27,2.0,9.0,78,0.00,SCT,SCT,0.00,322.9,WeatherDisplay:10.37,2013-07-05 18:50:00,
2013-07-05 09:00:00,75.6,67.5,29.97,NE,38,5.0,8.0,76,0.00,SCT,SCT,0.00,93.2,WeatherDisplay:10.37,2013-07-05 19:00:00,
2013-07-05 09:10:00,74.6,67.3,29.96,NNE,23,2.0,8.0,78,0.00,SCT,SCT,0.00,121.0,WeatherDisplay:10.37,2013-07-05 19:10:00,
2013-07-05 09:20:00,74.8,68.6,29.97,NE,35,5.0,9.0,81,0.00,FEW,SCT,0.00,464.1,WeatherDisplay:10.37,2013-07-05 19:20:00,
2013-07-05 09:30:00,76.0,69.0,29.96,North,6,1.0,7.0,79,0.00,FEW,SCT,0.00,442.2,WeatherDisplay:10.37,2013-07-05 19:30:00,
2013-07-05 09:40:00,76.7,68.9,29.97,NNE,22,2.0,8.0,77,0.00,FEW,SCT,0.00,319.2,WeatherDisplay:10.37,2013-07-05 19:40:00,
2013-07-05 09:50:00,77.0,68.9,29.96,NNE,18,6.0,12.0,76,0.00,FEW,SCT,0.00,132.6,WeatherDisplay:10.37,2013-07-05 19:50:00,
2013-07-05 10:00:00,75.6,68.3,29.96,North,357,5.0,12.0,78,0.00,FEW,SCT,0.00,200.2,WeatherDisplay:10.37,2013-07-05 20:00:00,
2013-07-05 10:10:00,75.7,68.4,29.97,NNE,19,6.0,9.0,78,0.00,FEW,SCT,0.00,239.7,WeatherDisplay:10.37,2013-07-05 20:10:00,
2013-07-05 10:20:00,75.9,68.6,29.96,NNE,15,3.0,13.0,78,0.00,SCT,SCT,0.00,459.2,WeatherDisplay:10.37,2013-07-05 20:20:00,
2013-07-05 10:30:00,76.7,68.9,29.96,North,10,3.0,12.0,77,0.00,SCT,SCT,0.00,215.9,WeatherDisplay:10.37,2013-07-05 20:30:00,
2013-07-05 10:40:00,76.2,68.9,29.96,NNE,25,6.0,13.0,78,0.00,SCT,SCT,0.00,527.5,WeatherDisplay:10.37,2013-07-05 20:40:00,
2013-07-05 10:50:00,76.5,68.7,29.96,NE,47,6.0,12.0,77,0.00,SCT,SCT,0.00,303.0,WeatherDisplay:10.37,2013-07-05 20:50:00,
2013-07-05 11:00:00,76.5,68.4,29.96,NE,40,5.0,12.0,76,0.00,SCT,SCT,0.00,222.5,WeatherDisplay:10.37,2013-07-05 21:00:00,
2013-07-05 11:10:00,76.1,68.7,29.96,NNE,20,6.0,10.0,78,0.00,SCT,SCT,0.00,611.3,WeatherDisplay:10.37,2013-07-05 21:10:00,
2013-07-05 11:20:00,77.1,68.9,29.96,NNE,30,8.0,14.0,76,0.00,SCT,SCT,0.00,440.6,WeatherDisplay:10.37,2013-07-05 21:20:00,
2013-07-05 11:30:00,77.1,68.9,29.96,NNE,12,3.0,10.0,76,0.00,SCT,SCT,0.00,395.1,WeatherDisplay:10.37,2013-07-05 21:30:00,
2013-07-05 11:40:00,77.7,69.1,29.96,NNE,30,3.0,9.0,75,0.00,SCT,SCT,0.00,639.6,WeatherDisplay:10.37,2013-07-05 21:40:00,
2013-07-05 11:50:00,78.9,69.9,29.95,ENE,59,2.0,10.0,74,0.00,SCT,SCT,0.00,451.9,WeatherDisplay:10.37,2013-07-05 21:50:00,
2013-07-05 12:00:00,79.3,69.9,29.95,NNE,19,7.0,12.0,73,0.00,SCT,SCT,0.00,493.3,WeatherDisplay:10.37,2013-07-05 22:00:00,
2013-07-05 12:10:00,78.3,68.9,29.95,NNE,12,6.0,12.0,73,0.00,SCT,SCT,0.00,284.4,WeatherDisplay:10.37,2013-07-05 22:10:00,
2013-07-05 12:20:00,77.5,69.0,29.95,North,11,6.0,13.0,75,0.00,SCT,SCT,0.00,325.3,WeatherDisplay:10.37,2013-07-05 22:20:00,
2013-07-05 12:30:00,78.0,69.4,29.94,North,4,6.0,12.0,75,0.00,SCT,SCT,0.00,389.2,WeatherDisplay:10.37,2013-07-05 22:30:00,
2013-07-05 12:40:00,78.0,69.4,29.94,NNE,14,5.0,13.0,75,0.00,SCT,SCT,0.00,487.3,WeatherDisplay:10.37,2013-07-05 22:40:00,
2013-07-05 12:50:00,79.0,70.0,29.94,NE,44,8.0,14.0,74,0.00,SCT,SCT,0.00,828.7,WeatherDisplay:10.37,2013-07-05 22:50:00,
2013-07-05 13:00:00,79.4,69.6,29.94,NE,43,3.0,14.0,72,0.00,SCT,SCT,0.00,803.5,WeatherDisplay:10.37,2013-07-05 23:00:00,
2013-07-05 13:10:00,80.3,69.6,29.94,NE,47,6.0,17.0,70,0.00,SCT,SCT,0.00,482.8,WeatherDisplay:10.37,2013-07-05 23:10:00,
2013-07-05 13:20:00,79.5,69.3,29.93,NE,41,8.0,14.0,71,0.00,SCT,SCT,0.00,615.6,WeatherDisplay:10.37,2013-07-05 23:20:00,
2013-07-05 13:30:00,78.6,68.8,29.93,NE,44,7.0,13.0,72,0.00,SCT,SCT,0.00,418.5,WeatherDisplay:10.37,2013-07-05 23:30:00,
2013-07-05 13:40:00,78.2,68.8,29.92,NE,47,8.0,14.0,73,0.00,SCT,SCT,0.00,432.5,WeatherDisplay:10.37,2013-07-05 23:40:00,
2013-07-05 13:50:00,77.9,68.6,29.93,NE,47,6.0,15.0,73,0.00,SCT,SCT,0.00,278.7,WeatherDisplay:10.37,2013-07-05 23:50:00,
2013-07-05 14:00:00,77.1,68.6,29.93,ENE,57,5.0,10.0,75,0.00,SCT,SCT,0.00,253.7,WeatherDisplay:10.37,2013-07-06 00:00:00,
2013-07-05 14:10:00,76.1,68.3,29.93,ENE,57,6.0,13.0,77,0.00,SCT,SCT,0.00,229.8,WeatherDisplay:10.37,2013-07-06 00:10:00,
2013-07-05 14:20:00,75.8,68.1,29.92,ENE,63,6.0,12.0,77,0.00,SCT,SCT,0.00,319.3,WeatherDisplay:10.37,2013-07-06 00:20:00,
2013-07-05 14:30:00,76.8,68.3,29.92,NE,41,3.0,13.0,75,0.00,SCT,SCT,0.00,262.4,WeatherDisplay:10.37,2013-07-06 00:30:00,
2013-07-05 14:40:00,76.2,68.5,29.92,NE,40,8.0,12.0,77,0.00,SCT,SCT,0.00,191.7,WeatherDisplay:10.37,2013-07-06 00:40:00,
2013-07-05 14:50:00,75.5,68.5,29.92,NE,48,2.0,12.0,79,0.00,SCT,SCT,0.00,312.7,WeatherDisplay:10.37,2013-07-06 00:50:00,
2013-07-05 15:00:00,76.0,68.6,29.92,NNE,32,6.0,13.0,78,0.00,SCT,SCT,0.00,230.3,WeatherDisplay:10.37,2013-07-06 01:00:00,
2013-07-05 15:10:00,76.4,68.7,29.92,NNE,29,5.0,13.0,77,0.00,SCT,SCT,0.00,177.2,WeatherDisplay:10.37,2013-07-06 01:10:00,
2013-07-05 15:20:00,75.8,68.8,29.91,ENE,59,1.0,12.0,79,0.00,SCT,SCT,0.00,200.0,WeatherDisplay:10.37,2013-07-06 01:20:00,
2013-07-05 15:30:00,75.6,69.0,29.91,NNE,31,8.0,10.0,80,0.00,SCT,SCT,0.00,147.6,WeatherDisplay:10.37,2013-07-06 01:30:00,
2013-07-05 15:40:00,74.3,68.5,29.91,NE,38,5.0,10.0,82,0.00,SCT,SCT,0.00,139.0,WeatherDisplay:10.37,2013-07-06 01:40:00,
2013-07-05 15:50:00,73.7,69.2,29.91,NE,46,7.0,11.0,86,0.00,SCT,SCT,0.00,179.4,WeatherDisplay:10.37,2013-07-06 01:50:00,
2013-07-05 16:00:00,73.8,68.7,29.91,NE,44,5.0,12.0,84,0.00,SCT,SCT,0.00,157.1,WeatherDisplay:10.37,2013-07-06 02:00:00,
2013-07-05 16:10:00,73.7,68.2,29.90,ENE,67,6.0,13.0,83,0.00,SCT,SCT,0.00,174.6,WeatherDisplay:10.37,2013-07-06 02:10:00,
2013-07-05 16:20:00,74.0,69.2,29.90,NE,56,8.0,15.0,85,0.00,SCT,SCT,0.00,266.3,WeatherDisplay:10.37,2013-07-06 02:20:00,
2013-07-05 16:30:00,74.4,68.5,29.90,ENE,59,6.0,10.0,82,0.00,SCT,SCT,0.00,156.4,WeatherDisplay:10.37,2013-07-06 02:30:00,
2013-07-05 16:40:00,75.8,69.2,29.89,NE,50,7.0,12.0,80,0.00,SCT,SCT,0.00,191.4,WeatherDisplay:10.37,2013-07-06 02:40:00,
2013-07-05 16:50:00,76.4,68.6,29.89,NE,53,7.0,15.0,77,0.00,SCT,SCT,0.00,181.8,WeatherDisplay:10.37,2013-07-06 02:50:00,
2013-07-05 17:00:00,76.5,69.1,29.89,NE,44,5.0,14.0,78,0.00,SCT,SCT,0.00,71.9,WeatherDisplay:10.37,2013-07-06 03:00:00,
2013-07-05 17:10:00,75.1,68.5,29.90,NE,43,6.0,12.0,80,0.00,SCT,SCT,0.00,64.7,WeatherDisplay:10.37,2013-07-06 03:10:00,
2013-07-05 17:20:00,74.5,68.6,29.89,NE,36,8.0,16.0,82,0.00,BKN,SCT,0.00,49.5,WeatherDisplay:10.37,2013-07-06 03:20:00,
2013-07-05 17:30:00,74.6,68.7,29.89,ENE,59,8.0,14.0,82,0.00,BKN,SCT,0.00,83.8,WeatherDisplay:10.37,2013-07-06 03:30:00,
2013-07-05 17:40:00,74.3,68.4,29.89,NE,56,7.0,15.0,82,0.00,BKN,SCT,0.00,33.5,WeatherDisplay:10.37,2013-07-06 03:40:00,
2013-07-05 17:50:00,73.0,67.9,29.90,ENE,60,7.0,15.0,84,0.00,BKN,SCT,0.00,46.9,WeatherDisplay:10.37,2013-07-06 03:50:00,
2013-07-05 18:00:00,72.7,67.6,29.90,ENE,59,8.0,17.0,84,0.00,BKN,SCT,0.00,48.8,WeatherDisplay:10.37,2013-07-06 04:00:00,
2013-07-05 18:10:00,72.6,67.5,29.90,ENE,57,7.0,15.0,84,0.00,SCT,SCT,0.00,50.7,WeatherDisplay:10.37,2013-07-06 04:10:00,
2013-07-05 18:20:00,72.3,67.2,29.90,ENE,63,7.0,17.0,84,0.00,SCT,SCT,0.00,15.6,WeatherDisplay:10.37,2013-07-06 04:20:00,
2013-07-05 18:30:00,72.1,67.0,29.91,ENE,66,7.0,15.0,84,0.00,SCT,SCT,0.00,25.8,WeatherDisplay:10.37,2013-07-06 04:30:00,
2013-07-05 18:40:00,71.8,67.0,29.91,NE,55,8.0,20.0,85,0.00,SCT,SCT,0.00,15.0,WeatherDisplay:10.37,2013-07-06 04:40:00,
2013-07-05 18:50:00,71.1,66.3,29.91,ENE,61,9.0,15.0,85,0.00,SCT,SCT,0.00,0.9,WeatherDisplay:10.37,2013-07-06 04:50:00,
2013-07-05 19:00:00,70.4,66.0,29.91,ENE,62,8.0,15.0,86,0.00,SCT,SCT,0.00,0.2,WeatherDisplay:10.37,2013-07-06 05:00:00,
2013-07-05 19:10:00,69.8,65.8,29.92,ENE,65,8.0,15.0,87,0.00,SCT,SCT,0.00,0.0,WeatherDisplay:10.37,2013-07-06 05:10:00,
2013-07-05 19:20:00,69.4,65.3,29.92,ENE,73,7.0,13.0,87,0.00,CLR,SCT,0.00,0.0,WeatherDisplay:10.37,2013-07-06 05:20:00,
2013-07-05 19:30:00,69.0,65.0,29.92,ENE,73,3.0,14.0,87,0.00,CLR,SCT,0.00,0.0,WeatherDisplay:10.37,2013-07-06 05:30:00,
2013-07-05 19:40:00,68.8,64.8,29.92,ENE,71,3.0,14.0,87,0.00,CLR,SCT,0.00,0.0,WeatherDisplay:10.37,2013-07-06 05:40:00,
2013-07-05 19:50:00,68.6,64.2,29.93,East,79,3.0,9.0,86,0.00,CLR,SCT,0.00,0.0,WeatherDisplay:10.37,2013-07-06 05:50:00,
2013-07-05 20:00:00,68.6,64.2,29.93,ENE,78,5.0,9.0,86,0.00,CLR,SCT,0.00,0.0,WeatherDisplay:10.37,2013-07-06 06:00:00,
2013-07-05 20:10:00,68.5,64.1,29.93,NE,53,5.0,7.0,86,0.00,SCT,SCT,0.00,0.0,WeatherDisplay:10.37,2013-07-06 06:10:00,
2013-07-05 20:20:00,68.2,63.9,29.93,ENE,59,2.0,8.0,86,0.00,SCT,SCT,0.00,0.0,WeatherDisplay:10.37,2013-07-06 06:20:00,
2013-07-05 20:30:00,67.9,63.9,29.94,ENE,61,2.0,8.0,87,0.00,SCT,SCT,0.00,0.0,WeatherDisplay:10.37,2013-07-06 06:30:00,
2013-07-05 20:40:00,67.6,63.6,29.94,ENE,67,2.0,7.0,87,0.00,SCT,SCT,0.00,0.0,WeatherDisplay:10.37,2013-07-06 06:40:00,
2013-07-05 21:00:00,67.3,63.0,29.95,ENE,67,2.0,20.0,86,0.00,SCT,SCT,0.00,0.0,WeatherDisplay:10.37,2013-07-06 07:00:00,
2013-07-05 21:10:00,67.1,62.8,29.95,East,83,1.0,3.0,86,0.00,SCT,SCT,0.00,0.0,WeatherDisplay:10.37,2013-07-06 07:10:00,
2013-07-05 21:20:00,66.8,62.5,29.95,East,82,0.0,4.0,86,0.00,SCT,SCT,0.00,0.0,WeatherDisplay:10.37,2013-07-06 07:20:00,
2013-07-05 21:30:00,66.5,61.9,29.96,East,82,2.0,4.0,85,0.00,SCT,SCT,0.00,0.0,WeatherDisplay:10.37,2013-07-06 07:30:00,
2013-07-05 21:40:00,66.4,63.1,29.96,ESE,109,1.0,4.0,89,0.00,SCT,SCT,0.00,0.0,WeatherDisplay:10.37,2013-07-06 07:40:00,
2013-07-05 21:50:00,66.4,63.1,29.97,ESE,109,0.0,3.0,89,0.00,SCT,SCT,0.00,0.0,WeatherDisplay:10.37,2013-07-06 07:50:00,
2013-07-05 22:00:00,66.1,62.8,29.97,ESE,109,0.0,2.0,89,0.00,SCT,SCT,0.00,0.0,WeatherDisplay:10.37,2013-07-06 08:00:00,
2013-07-05 22:10:00,65.8,62.8,29.97,ESE,109,0.0,3.0,90,0.00,SCT,SCT,0.00,0.0,WeatherDisplay:10.37,2013-07-06 08:10:00,
2013-07-05 22:20:00,65.6,62.6,29.97,ESE,109,0.0,1.0,90,0.00,SCT,SCT,0.00,0.0,WeatherDisplay:10.37,2013-07-06 08:20:00,
2013-07-05 22:30:00,65.2,62.2,29.97,ESE,109,0.0,0.0,90,0.00,SCT,SCT,0.00,0.0,WeatherDisplay:10.37,2013-07-06 08:30:00,
2013-07-05 22:40:00,64.9,62.2,29.97,ESE,109,0.0,0.0,91,0.00,SCT,SCT,0.00,0.0,WeatherDisplay:10.37,2013-07-06 08:40:00,
2013-07-05 22:50:00,64.7,62.0,29.97,ESE,109,0.0,1.0,91,0.00,SCT,SCT,0.00,0.0,WeatherDisplay:10.37,2013-07-06 08:50:00,
2013-07-05 23:00:00,64.5,61.9,29.97,ESE,109,0.0,2.0,91,0.00,SCT,SCT,0.00,0.0,WeatherDisplay:10.37,2013-07-06 09:00:00,
2013-07-05 23:10:00,64.4,61.7,29.97,ESE,109,0.0,2.0,91,0.00,BKN,SCT,0.00,0.0,WeatherDisplay:10.37,2013-07-06 09:10:00,
2013-07-05 23:20:00,64.2,61.5,29.97,ESE,109,0.0,2.0,91,0.00,BKN,SCT,0.00,0.0,WeatherDisplay:10.37,2013-07-06 09:20:00,
2013-07-05 23:30:00,64.0,61.3,29.97,ESE,109,0.0,3.0,91,0.00,BKN,SCT,0.00,0.0,WeatherDisplay:10.37,2013-07-06 09:30:00,
2013-07-05 23:40:00,63.8,61.2,29.97,ESE,109,1.0,2.0,91,0.00,BKN,SCT,0.00,0.0,WeatherDisplay:10.37,2013-07-06 09:40:00,
2013-07-05 23:50:00,63.6,61.3,29.97,ESE,109,0.0,3.0,92,0.00,BKN,SCT,0.00,0.0,WeatherDisplay:10.37,2013-07-06 09:50:00,